sensor_id;sensor_type;location;lat;lon;timestamp;P1;durP1;ratioP1;P2;durP2;ratioP2
7162;SDS011;3623;47.098;15.446;2023-02-11T00:00:40;18.50;;;11.65;;
7162;SDS011;3623;47.098;15.446;2023-02-11T00:03:08;12.32;;;8.57;;
7162;SDS011;3623;47.098;15.446;2023-02-11T00:05:35;12.57;;;9.75;;
7162;SDS011;3623;47.098;15.446;2023-02-11T00:08:04;15.70;;;10.60;;
7162;SDS011;3623;47.098;15.446;2023-02-11T00:10:31;16.90;;;10.90;;
7162;SDS011;3623;47.098;15.446;2023-02-11T00:12:58;15.45;;;10.18;;
7162;SDS011;3623;47.098;15.446;2023-02-11T00:15:25;13.40;;;10.57;;
7162;SDS011;3623;47.098;15.446;2023-02-11T00:17:52;15.27;;;11.20;;
7162;SDS011;3623;47.098;15.446;2023-02-11T00:20:19;14.90;;;9.45;;
7162;SDS011;3623;47.098;15.446;2023-02-11T00:22:46;13.98;;;11.38;;
7162;SDS011;3623;47.098;15.446;2023-02-11T00:25:15;15.32;;;10.35;;
7162;SDS011;3623;47.098;15.446;2023-02-11T00:27:42;20.77;;;10.80;;
7162;SDS011;3623;47.098;15.446;2023-02-11T00:30:09;11.07;;;9.63;;
7162;SDS011;3623;47.098;15.446;2023-02-11T00:32:36;14.43;;;10.25;;
7162;SDS011;3623;47.098;15.446;2023-02-11T00:35:04;11.25;;;9.25;;
7162;SDS011;3623;47.098;15.446;2023-02-11T00:37:31;14.98;;;9.50;;
7162;SDS011;3623;47.098;15.446;2023-02-11T00:40:00;16.65;;;9.90;;
7162;SDS011;3623;47.098;15.446;2023-02-11T00:42:29;17.70;;;10.30;;
7162;SDS011;3623;47.098;15.446;2023-02-11T00:44:56;12.25;;;10.00;;
7162;SDS011;3623;47.098;15.446;2023-02-11T00:47:23;17.70;;;10.80;;
7162;SDS011;3623;47.098;15.446;2023-02-11T00:49:50;15.35;;;10.05;;
7162;SDS011;3623;47.098;15.446;2023-02-11T00:52:17;10.90;;;9.30;;
7162;SDS011;3623;47.098;15.446;2023-02-11T00:54:45;16.20;;;10.05;;
7162;SDS011;3623;47.098;15.446;2023-02-11T00:57:12;12.00;;;8.75;;
7162;SDS011;3623;47.098;15.446;2023-02-11T00:59:40;16.23;;;9.32;;
7162;SDS011;3623;47.098;15.446;2023-02-11T01:02:07;14.57;;;10.40;;
7162;SDS011;3623;47.098;15.446;2023-02-11T01:04:34;17.85;;;10.50;;
7162;SDS011;3623;47.098;15.446;2023-02-11T01:07:01;17.15;;;10.25;;
7162;SDS011;3623;47.098;15.446;2023-02-11T01:09:28;14.18;;;10.30;;
7162;SDS011;3623;47.098;15.446;2023-02-11T01:11:55;31.85;;;10.63;;
7162;SDS011;3623;47.098;15.446;2023-02-11T01:14:22;12.43;;;8.90;;
7162;SDS011;3623;47.098;15.446;2023-02-11T01:16:51;13.90;;;9.93;;
7162;SDS011;3623;47.098;15.446;2023-02-11T01:19:18;11.60;;;8.65;;
7162;SDS011;3623;47.098;15.446;2023-02-11T01:21:45;9.77;;;8.43;;
7162;SDS011;3623;47.098;15.446;2023-02-11T01:24:12;12.05;;;9.45;;
7162;SDS011;3623;47.098;15.446;2023-02-11T01:26:39;11.90;;;8.60;;
7162;SDS011;3623;47.098;15.446;2023-02-11T01:29:06;11.27;;;9.65;;
7162;SDS011;3623;47.098;15.446;2023-02-11T01:31:33;14.82;;;8.20;;
7162;SDS011;3623;47.098;15.446;2023-02-11T01:34:02;11.65;;;8.25;;
7162;SDS011;3623;47.098;15.446;2023-02-11T01:36:29;14.18;;;9.60;;
7162;SDS011;3623;47.098;15.446;2023-02-11T01:38:56;13.25;;;9.50;;
7162;SDS011;3623;47.098;15.446;2023-02-11T01:41:23;13.52;;;9.07;;
7162;SDS011;3623;47.098;15.446;2023-02-11T01:43:50;21.17;;;9.45;;
7162;SDS011;3623;47.098;15.446;2023-02-11T01:46:26;20.63;;;9.30;;
7162;SDS011;3623;47.098;15.446;2023-02-11T01:49:02;12.98;;;8.65;;
7162;SDS011;3623;47.098;15.446;2023-02-11T01:51:33;19.83;;;10.20;;
7162;SDS011;3623;47.098;15.446;2023-02-11T01:54:04;14.52;;;9.20;;
7162;SDS011;3623;47.098;15.446;2023-02-11T01:56:51;14.57;;;9.05;;
7162;SDS011;3623;47.098;15.446;2023-02-11T01:59:40;9.77;;;7.60;;
7162;SDS011;3623;47.098;15.446;2023-02-11T02:02:14;11.35;;;8.30;;
7162;SDS011;3623;47.098;15.446;2023-02-11T02:04:49;14.68;;;9.07;;
7162;SDS011;3623;47.098;15.446;2023-02-11T02:07:24;15.93;;;9.50;;
7162;SDS011;3623;47.098;15.446;2023-02-11T02:09:59;10.57;;;8.82;;
7162;SDS011;3623;47.098;15.446;2023-02-11T02:12:30;12.00;;;8.25;;
7162;SDS011;3623;47.098;15.446;2023-02-11T02:17:50;11.45;;;8.57;;
7162;SDS011;3623;47.098;15.446;2023-02-11T02:23:34;14.32;;;8.63;;
7162;SDS011;3623;47.098;15.446;2023-02-11T02:29:49;9.93;;;8.35;;
7162;SDS011;3623;47.098;15.446;2023-02-11T02:32:56;9.95;;;8.52;;
7162;SDS011;3623;47.098;15.446;2023-02-11T02:35:42;12.63;;;8.40;;
7162;SDS011;3623;47.098;15.446;2023-02-11T02:38:15;13.95;;;8.35;;
7162;SDS011;3623;47.098;15.446;2023-02-11T02:40:47;13.18;;;9.20;;
7162;SDS011;3623;47.098;15.446;2023-02-11T02:43:18;15.57;;;9.05;;
7162;SDS011;3623;47.098;15.446;2023-02-11T02:45:48;11.15;;;8.20;;
7162;SDS011;3623;47.098;15.446;2023-02-11T02:48:26;17.08;;;9.20;;
7162;SDS011;3623;47.098;15.446;2023-02-11T02:50:57;13.73;;;8.48;;
7162;SDS011;3623;47.098;15.446;2023-02-11T02:53:39;11.65;;;8.70;;
7162;SDS011;3623;47.098;15.446;2023-02-11T02:56:17;15.10;;;8.35;;
7162;SDS011;3623;47.098;15.446;2023-02-11T02:59:03;12.82;;;9.85;;
7162;SDS011;3623;47.098;15.446;2023-02-11T03:01:47;9.85;;;8.73;;
7162;SDS011;3623;47.098;15.446;2023-02-11T03:04:21;9.13;;;7.72;;
7162;SDS011;3623;47.098;15.446;2023-02-11T03:06:56;14.05;;;8.50;;
7162;SDS011;3623;47.098;15.446;2023-02-11T03:09:27;10.40;;;8.30;;
7162;SDS011;3623;47.098;15.446;2023-02-11T03:11:57;10.50;;;8.13;;
7162;SDS011;3623;47.098;15.446;2023-02-11T03:14:25;10.50;;;8.25;;
7162;SDS011;3623;47.098;15.446;2023-02-11T03:16:55;8.65;;;7.72;;
7162;SDS011;3623;47.098;15.446;2023-02-11T03:19:27;10.15;;;8.60;;
7162;SDS011;3623;47.098;15.446;2023-02-11T03:21:57;12.95;;;8.40;;
7162;SDS011;3623;47.098;15.446;2023-02-11T03:24:29;12.48;;;7.50;;
7162;SDS011;3623;47.098;15.446;2023-02-11T03:27:00;13.75;;;7.97;;
7162;SDS011;3623;47.098;15.446;2023-02-11T03:29:34;14.88;;;8.20;;
7162;SDS011;3623;47.098;15.446;2023-02-11T03:32:05;13.02;;;8.85;;
7162;SDS011;3623;47.098;15.446;2023-02-11T03:34:43;9.40;;;7.53;;
7162;SDS011;3623;47.098;15.446;2023-02-11T03:37:15;11.52;;;8.38;;
7162;SDS011;3623;47.098;15.446;2023-02-11T03:39:45;10.75;;;7.70;;
7162;SDS011;3623;47.098;15.446;2023-02-11T03:42:15;9.90;;;7.82;;
7162;SDS011;3623;47.098;15.446;2023-02-11T03:44:46;16.13;;;8.00;;
7162;SDS011;3623;47.098;15.446;2023-02-11T03:47:18;11.05;;;8.23;;
7162;SDS011;3623;47.098;15.446;2023-02-11T03:49:49;9.25;;;7.93;;
7162;SDS011;3623;47.098;15.446;2023-02-11T03:52:18;9.88;;;8.85;;
7162;SDS011;3623;47.098;15.446;2023-02-11T03:54:47;13.50;;;8.73;;
7162;SDS011;3623;47.098;15.446;2023-02-11T03:57:18;9.10;;;7.53;;
7162;SDS011;3623;47.098;15.446;2023-02-11T03:59:49;10.02;;;7.30;;
7162;SDS011;3623;47.098;15.446;2023-02-11T04:02:18;13.50;;;7.90;;
7162;SDS011;3623;47.098;15.446;2023-02-11T04:04:46;11.77;;;8.48;;
7162;SDS011;3623;47.098;15.446;2023-02-11T04:07:15;13.38;;;7.93;;
7162;SDS011;3623;47.098;15.446;2023-02-11T04:09:42;8.38;;;7.28;;
7162;SDS011;3623;47.098;15.446;2023-02-11T04:12:09;13.13;;;8.57;;
7162;SDS011;3623;47.098;15.446;2023-02-11T04:14:36;11.43;;;7.90;;
7162;SDS011;3623;47.098;15.446;2023-02-11T04:17:03;11.75;;;8.00;;
7162;SDS011;3623;47.098;15.446;2023-02-11T04:19:30;13.68;;;8.30;;
7162;SDS011;3623;47.098;15.446;2023-02-11T04:21:57;10.30;;;6.93;;
7162;SDS011;3623;47.098;15.446;2023-02-11T04:24:26;11.32;;;8.10;;
7162;SDS011;3623;47.098;15.446;2023-02-11T04:26:53;13.02;;;8.05;;
7162;SDS011;3623;47.098;15.446;2023-02-11T04:29:20;9.30;;;8.00;;
7162;SDS011;3623;47.098;15.446;2023-02-11T04:31:47;10.90;;;8.98;;
7162;SDS011;3623;47.098;15.446;2023-02-11T04:34:15;11.68;;;8.98;;
7162;SDS011;3623;47.098;15.446;2023-02-11T04:36:43;8.30;;;7.38;;
7162;SDS011;3623;47.098;15.446;2023-02-11T04:39:10;13.32;;;8.35;;
7162;SDS011;3623;47.098;15.446;2023-02-11T04:41:38;8.93;;;7.55;;
7162;SDS011;3623;47.098;15.446;2023-02-11T04:44:05;8.73;;;7.43;;
7162;SDS011;3623;47.098;15.446;2023-02-11T04:46:32;10.43;;;7.68;;
7162;SDS011;3623;47.098;15.446;2023-02-11T04:48:59;14.85;;;7.53;;
7162;SDS011;3623;47.098;15.446;2023-02-11T04:51:27;16.08;;;7.45;;
7162;SDS011;3623;47.098;15.446;2023-02-11T04:53:54;11.40;;;7.57;;
7162;SDS011;3623;47.098;15.446;2023-02-11T04:56:21;10.82;;;7.93;;
7162;SDS011;3623;47.098;15.446;2023-02-11T04:58:49;14.63;;;7.57;;
7162;SDS011;3623;47.098;15.446;2023-02-11T05:01:16;11.85;;;7.28;;
7162;SDS011;3623;47.098;15.446;2023-02-11T05:03:44;10.10;;;8.80;;
7162;SDS011;3623;47.098;15.446;2023-02-11T05:06:11;11.60;;;7.85;;
7162;SDS011;3623;47.098;15.446;2023-02-11T05:08:38;12.80;;;7.72;;
7162;SDS011;3623;47.098;15.446;2023-02-11T05:11:06;15.13;;;8.60;;
7162;SDS011;3623;47.098;15.446;2023-02-11T05:13:33;9.30;;;7.53;;
7162;SDS011;3623;47.098;15.446;2023-02-11T05:16:02;9.50;;;7.65;;
7162;SDS011;3623;47.098;15.446;2023-02-11T05:18:30;8.15;;;6.78;;
7162;SDS011;3623;47.098;15.446;2023-02-11T05:20:57;9.68;;;7.63;;
7162;SDS011;3623;47.098;15.446;2023-02-11T05:23:24;13.50;;;8.65;;
7162;SDS011;3623;47.098;15.446;2023-02-11T05:25:51;16.02;;;10.07;;
7162;SDS011;3623;47.098;15.446;2023-02-11T05:28:18;11.50;;;7.53;;
7162;SDS011;3623;47.098;15.446;2023-02-11T05:30:45;8.00;;;7.18;;
7162;SDS011;3623;47.098;15.446;2023-02-11T05:33:13;10.32;;;8.00;;
7162;SDS011;3623;47.098;15.446;2023-02-11T05:35:40;9.50;;;7.97;;
7162;SDS011;3623;47.098;15.446;2023-02-11T05:38:07;9.77;;;7.57;;
7162;SDS011;3623;47.098;15.446;2023-02-11T05:40:34;9.60;;;8.23;;
7162;SDS011;3623;47.098;15.446;2023-02-11T05:43:02;10.40;;;8.13;;
7162;SDS011;3623;47.098;15.446;2023-02-11T05:45:29;10.30;;;7.15;;
7162;SDS011;3623;47.098;15.446;2023-02-11T05:47:56;10.80;;;7.32;;
7162;SDS011;3623;47.098;15.446;2023-02-11T05:50:24;16.13;;;8.02;;
7162;SDS011;3623;47.098;15.446;2023-02-11T05:52:51;9.02;;;7.53;;
7162;SDS011;3623;47.098;15.446;2023-02-11T05:55:19;9.77;;;7.18;;
7162;SDS011;3623;47.098;15.446;2023-02-11T05:57:46;9.43;;;7.00;;
7162;SDS011;3623;47.098;15.446;2023-02-11T06:00:13;9.10;;;7.45;;
7162;SDS011;3623;47.098;15.446;2023-02-11T06:02:41;11.20;;;8.07;;
7162;SDS011;3623;47.098;15.446;2023-02-11T06:05:08;8.77;;;7.30;;
7162;SDS011;3623;47.098;15.446;2023-02-11T06:07:37;7.93;;;6.40;;
7162;SDS011;3623;47.098;15.446;2023-02-11T06:10:04;9.52;;;6.70;;
7162;SDS011;3623;47.098;15.446;2023-02-11T06:12:32;8.30;;;6.75;;
7162;SDS011;3623;47.098;15.446;2023-02-11T06:14:59;9.80;;;7.22;;
7162;SDS011;3623;47.098;15.446;2023-02-11T06:17:26;24.45;;;7.50;;
7162;SDS011;3623;47.098;15.446;2023-02-11T06:19:55;11.75;;;7.60;;
7162;SDS011;3623;47.098;15.446;2023-02-11T06:22:22;8.57;;;7.03;;
7162;SDS011;3623;47.098;15.446;2023-02-11T06:24:51;9.98;;;7.82;;
7162;SDS011;3623;47.098;15.446;2023-02-11T06:27:18;10.73;;;7.40;;
7162;SDS011;3623;47.098;15.446;2023-02-11T06:29:46;11.00;;;6.90;;
7162;SDS011;3623;47.098;15.446;2023-02-11T06:32:13;8.18;;;6.38;;
7162;SDS011;3623;47.098;15.446;2023-02-11T06:34:41;8.55;;;7.07;;
7162;SDS011;3623;47.098;15.446;2023-02-11T06:37:08;9.98;;;7.85;;
7162;SDS011;3623;47.098;15.446;2023-02-11T06:39:35;14.15;;;7.90;;
7162;SDS011;3623;47.098;15.446;2023-02-11T06:42:03;7.43;;;6.47;;
7162;SDS011;3623;47.098;15.446;2023-02-11T06:44:31;11.38;;;8.07;;
7162;SDS011;3623;47.098;15.446;2023-02-11T06:46:58;8.38;;;7.45;;
7162;SDS011;3623;47.098;15.446;2023-02-11T06:49:25;7.63;;;6.82;;
7162;SDS011;3623;47.098;15.446;2023-02-11T06:51:52;11.95;;;7.97;;
7162;SDS011;3623;47.098;15.446;2023-02-11T06:54:19;10.70;;;6.95;;
7162;SDS011;3623;47.098;15.446;2023-02-11T06:56:46;7.82;;;6.50;;
7162;SDS011;3623;47.098;15.446;2023-02-11T06:59:15;17.27;;;10.15;;
7162;SDS011;3623;47.098;15.446;2023-02-11T07:01:42;14.10;;;9.60;;
7162;SDS011;3623;47.098;15.446;2023-02-11T07:04:10;11.43;;;9.77;;
7162;SDS011;3623;47.098;15.446;2023-02-11T07:06:38;11.40;;;9.45;;
7162;SDS011;3623;47.098;15.446;2023-02-11T07:09:06;9.07;;;8.27;;
7162;SDS011;3623;47.098;15.446;2023-02-11T07:11:33;9.50;;;7.25;;
7162;SDS011;3623;47.098;15.446;2023-02-11T07:14:01;8.90;;;8.00;;
7162;SDS011;3623;47.098;15.446;2023-02-11T07:16:31;9.05;;;6.68;;
7162;SDS011;3623;47.098;15.446;2023-02-11T07:18:58;10.32;;;7.70;;
7162;SDS011;3623;47.098;15.446;2023-02-11T07:21:25;10.35;;;7.05;;
7162;SDS011;3623;47.098;15.446;2023-02-11T07:23:53;9.73;;;7.38;;
7162;SDS011;3623;47.098;15.446;2023-02-11T07:26:20;7.78;;;6.78;;
7162;SDS011;3623;47.098;15.446;2023-02-11T07:28:49;7.07;;;6.53;;
7162;SDS011;3623;47.098;15.446;2023-02-11T07:31:18;9.68;;;7.22;;
7162;SDS011;3623;47.098;15.446;2023-02-11T07:33:48;7.50;;;6.63;;
7162;SDS011;3623;47.098;15.446;2023-02-11T07:36:17;6.50;;;5.88;;
7162;SDS011;3623;47.098;15.446;2023-02-11T07:38:44;9.48;;;6.30;;
7162;SDS011;3623;47.098;15.446;2023-02-11T07:41:12;8.30;;;6.60;;
7162;SDS011;3623;47.098;15.446;2023-02-11T07:43:41;7.22;;;6.60;;
7162;SDS011;3623;47.098;15.446;2023-02-11T07:46:13;8.43;;;7.35;;
7162;SDS011;3623;47.098;15.446;2023-02-11T07:48:41;8.38;;;7.38;;
7162;SDS011;3623;47.098;15.446;2023-02-11T07:51:10;11.50;;;7.28;;
7162;SDS011;3623;47.098;15.446;2023-02-11T07:53:40;11.27;;;7.00;;
7162;SDS011;3623;47.098;15.446;2023-02-11T07:56:08;7.90;;;6.90;;
7162;SDS011;3623;47.098;15.446;2023-02-11T07:58:36;9.68;;;7.57;;
7162;SDS011;3623;47.098;15.446;2023-02-11T08:01:03;15.48;;;7.00;;
7162;SDS011;3623;47.098;15.446;2023-02-11T08:03:32;9.95;;;6.75;;
7162;SDS011;3623;47.098;15.446;2023-02-11T08:06:02;8.80;;;6.47;;
7162;SDS011;3623;47.098;15.446;2023-02-11T08:08:31;7.00;;;6.32;;
7162;SDS011;3623;47.098;15.446;2023-02-11T08:10:58;7.80;;;6.60;;
7162;SDS011;3623;47.098;15.446;2023-02-11T08:13:31;7.57;;;6.65;;
7162;SDS011;3623;47.098;15.446;2023-02-11T08:15:59;7.53;;;6.07;;
7162;SDS011;3623;47.098;15.446;2023-02-11T08:18:26;8.43;;;7.07;;
7162;SDS011;3623;47.098;15.446;2023-02-11T08:20:53;9.25;;;7.45;;
7162;SDS011;3623;47.098;15.446;2023-02-11T08:23:20;8.60;;;6.13;;
7162;SDS011;3623;47.098;15.446;2023-02-11T08:25:48;6.90;;;6.20;;
7162;SDS011;3623;47.098;15.446;2023-02-11T08:28:16;7.97;;;7.18;;
7162;SDS011;3623;47.098;15.446;2023-02-11T08:30:43;7.75;;;6.75;;
7162;SDS011;3623;47.098;15.446;2023-02-11T08:33:10;8.50;;;7.05;;
7162;SDS011;3623;47.098;15.446;2023-02-11T08:35:37;7.22;;;6.47;;
7162;SDS011;3623;47.098;15.446;2023-02-11T08:38:04;9.60;;;7.22;;
7162;SDS011;3623;47.098;15.446;2023-02-11T08:40:31;7.10;;;6.40;;
7162;SDS011;3623;47.098;15.446;2023-02-11T08:43:00;10.65;;;7.10;;
7162;SDS011;3623;47.098;15.446;2023-02-11T08:45:27;7.35;;;6.47;;
7162;SDS011;3623;47.098;15.446;2023-02-11T08:47:54;9.98;;;7.15;;
7162;SDS011;3623;47.098;15.446;2023-02-11T08:50:21;8.00;;;7.20;;
7162;SDS011;3623;47.098;15.446;2023-02-11T08:52:48;8.63;;;6.18;;
7162;SDS011;3623;47.098;15.446;2023-02-11T08:55:16;8.75;;;7.22;;
7162;SDS011;3623;47.098;15.446;2023-02-11T08:57:43;10.63;;;7.07;;
7162;SDS011;3623;47.098;15.446;2023-02-11T09:00:13;11.57;;;6.90;;
7162;SDS011;3623;47.098;15.446;2023-02-11T09:02:41;10.43;;;6.68;;
7162;SDS011;3623;47.098;15.446;2023-02-11T09:05:08;9.68;;;7.22;;
7162;SDS011;3623;47.098;15.446;2023-02-11T09:07:35;6.82;;;6.18;;
7162;SDS011;3623;47.098;15.446;2023-02-11T09:10:02;7.18;;;6.45;;
7162;SDS011;3623;47.098;15.446;2023-02-11T09:12:30;10.52;;;6.90;;
7162;SDS011;3623;47.098;15.446;2023-02-11T09:14:57;7.53;;;6.78;;
7162;SDS011;3623;47.098;15.446;2023-02-11T09:17:26;6.68;;;6.07;;
7162;SDS011;3623;47.098;15.446;2023-02-11T09:19:53;14.98;;;7.55;;
7162;SDS011;3623;47.098;15.446;2023-02-11T09:22:20;7.22;;;6.53;;
7162;SDS011;3623;47.098;15.446;2023-02-11T09:24:47;8.82;;;8.00;;
7162;SDS011;3623;47.098;15.446;2023-02-11T09:27:14;7.18;;;6.40;;
7162;SDS011;3623;47.098;15.446;2023-02-11T09:29:41;8.25;;;6.80;;
7162;SDS011;3623;47.098;15.446;2023-02-11T09:32:08;9.85;;;8.70;;
7162;SDS011;3623;47.098;15.446;2023-02-11T09:34:37;10.35;;;8.00;;
7162;SDS011;3623;47.098;15.446;2023-02-11T09:37:04;8.95;;;7.30;;
7162;SDS011;3623;47.098;15.446;2023-02-11T09:39:31;18.48;;;11.32;;
7162;SDS011;3623;47.098;15.446;2023-02-11T09:45:01;16.08;;;12.73;;
7162;SDS011;3623;47.098;15.446;2023-02-11T09:47:30;18.40;;;14.45;;
7162;SDS011;3623;47.098;15.446;2023-02-11T09:50:01;26.85;;;15.63;;
7162;SDS011;3623;47.098;15.446;2023-02-11T09:52:32;18.80;;;14.90;;
7162;SDS011;3623;47.098;15.446;2023-02-11T09:55:08;18.98;;;14.80;;
7162;SDS011;3623;47.098;15.446;2023-02-11T09:57:42;17.73;;;14.38;;
7162;SDS011;3623;47.098;15.446;2023-02-11T10:00:15;21.65;;;16.77;;
7162;SDS011;3623;47.098;15.446;2023-02-11T10:03:00;23.42;;;17.30;;
7162;SDS011;3623;47.098;15.446;2023-02-11T10:06:05;17.80;;;15.10;;
7162;SDS011;3623;47.098;15.446;2023-02-11T10:08:46;18.92;;;14.77;;
7162;SDS011;3623;47.098;15.446;2023-02-11T10:11:22;18.20;;;12.80;;
7162;SDS011;3623;47.098;15.446;2023-02-11T10:13:58;15.50;;;12.55;;
7162;SDS011;3623;47.098;15.446;2023-02-11T10:16:36;28.38;;;19.70;;
7162;SDS011;3623;47.098;15.446;2023-02-11T10:19:25;25.65;;;18.73;;
7162;SDS011;3623;47.098;15.446;2023-02-11T10:22:05;24.40;;;19.00;;
7162;SDS011;3623;47.098;15.446;2023-02-11T10:24:37;28.55;;;20.80;;
7162;SDS011;3623;47.098;15.446;2023-02-11T10:27:12;23.05;;;17.73;;
7162;SDS011;3623;47.098;15.446;2023-02-11T10:29:44;21.80;;;18.50;;
7162;SDS011;3623;47.098;15.446;2023-02-11T10:32:14;17.00;;;14.98;;
7162;SDS011;3623;47.098;15.446;2023-02-11T10:34:51;22.95;;;16.25;;
7162;SDS011;3623;47.098;15.446;2023-02-11T10:37:25;22.67;;;15.45;;
7162;SDS011;3623;47.098;15.446;2023-02-11T10:39:52;23.48;;;17.67;;
7162;SDS011;3623;47.098;15.446;2023-02-11T10:42:19;24.13;;;18.90;;
7162;SDS011;3623;47.098;15.446;2023-02-11T10:44:48;22.05;;;16.13;;
7162;SDS011;3623;47.098;15.446;2023-02-11T10:47:23;19.25;;;16.40;;
7162;SDS011;3623;47.098;15.446;2023-02-11T10:49:53;15.43;;;13.15;;
7162;SDS011;3623;47.098;15.446;2023-02-11T10:52:29;20.42;;;17.40;;
7162;SDS011;3623;47.098;15.446;2023-02-11T10:55:00;20.80;;;16.55;;
7162;SDS011;3623;47.098;15.446;2023-02-11T10:57:32;19.77;;;14.63;;
7162;SDS011;3623;47.098;15.446;2023-02-11T11:00:04;19.65;;;14.57;;
7162;SDS011;3623;47.098;15.446;2023-02-11T11:02:44;19.60;;;14.10;;
7162;SDS011;3623;47.098;15.446;2023-02-11T11:05:22;16.55;;;13.70;;
7162;SDS011;3623;47.098;15.446;2023-02-11T11:07:56;19.10;;;16.45;;
7162;SDS011;3623;47.098;15.446;2023-02-11T11:10:34;18.55;;;14.98;;
7162;SDS011;3623;47.098;15.446;2023-02-11T11:13:25;16.83;;;14.77;;
7162;SDS011;3623;47.098;15.446;2023-02-11T11:16:07;17.02;;;13.48;;
7162;SDS011;3623;47.098;15.446;2023-02-11T11:18:43;17.50;;;13.10;;
7162;SDS011;3623;47.098;15.446;2023-02-11T11:21:12;22.48;;;15.18;;
7162;SDS011;3623;47.098;15.446;2023-02-11T11:23:47;16.60;;;13.95;;
7162;SDS011;3623;47.098;15.446;2023-02-11T11:26:16;20.33;;;13.68;;
7162;SDS011;3623;47.098;15.446;2023-02-11T11:28:58;20.17;;;12.07;;
7162;SDS011;3623;47.098;15.446;2023-02-11T11:31:29;15.07;;;12.40;;
7162;SDS011;3623;47.098;15.446;2023-02-11T11:33:59;15.50;;;13.77;;
7162;SDS011;3623;47.098;15.446;2023-02-11T11:36:32;20.15;;;12.50;;
7162;SDS011;3623;47.098;15.446;2023-02-11T11:39:16;13.15;;;11.85;;
7162;SDS011;3623;47.098;15.446;2023-02-11T11:41:49;16.75;;;13.82;;
7162;SDS011;3623;47.098;15.446;2023-02-11T11:44:22;15.80;;;13.70;;
7162;SDS011;3623;47.098;15.446;2023-02-11T11:46:54;15.55;;;13.48;;
7162;SDS011;3623;47.098;15.446;2023-02-11T11:49:49;17.20;;;13.68;;
7162;SDS011;3623;47.098;15.446;2023-02-11T11:52:35;16.30;;;13.48;;
7162;SDS011;3623;47.098;15.446;2023-02-11T11:55:10;15.57;;;12.93;;
7162;SDS011;3623;47.098;15.446;2023-02-11T11:57:42;16.10;;;12.67;;
7162;SDS011;3623;47.098;15.446;2023-02-11T12:00:13;16.87;;;12.93;;
7162;SDS011;3623;47.098;15.446;2023-02-11T12:02:53;13.20;;;11.77;;
7162;SDS011;3623;47.098;15.446;2023-02-11T12:05:35;12.33;;;11.10;;
7162;SDS011;3623;47.098;15.446;2023-02-11T12:08:09;11.70;;;10.00;;
7162;SDS011;3623;47.098;15.446;2023-02-11T12:10:52;11.33;;;10.20;;
7162;SDS011;3623;47.098;15.446;2023-02-11T12:13:31;11.50;;;10.30;;
7162;SDS011;3623;47.098;15.446;2023-02-11T12:16:11;14.63;;;13.03;;
7162;SDS011;3623;47.098;15.446;2023-02-11T12:21:51;17.53;;;12.33;;
7162;SDS011;3623;47.098;15.446;2023-02-11T12:24:26;14.03;;;12.63;;
7162;SDS011;3623;47.098;15.446;2023-02-11T12:27:19;15.10;;;12.30;;
7162;SDS011;3623;47.098;15.446;2023-02-11T12:30:01;17.33;;;13.80;;
7162;SDS011;3623;47.098;15.446;2023-02-11T12:32:34;14.60;;;12.93;;
7162;SDS011;3623;47.098;15.446;2023-02-11T12:35:13;14.03;;;12.60;;
7162;SDS011;3623;47.098;15.446;2023-02-11T12:40:44;13.70;;;12.30;;
7162;SDS011;3623;47.098;15.446;2023-02-11T12:43:17;12.60;;;11.30;;
7162;SDS011;3623;47.098;15.446;2023-02-11T12:45:59;13.27;;;11.97;;
7162;SDS011;3623;47.098;15.446;2023-02-11T12:48:47;12.70;;;11.40;;
7162;SDS011;3623;47.098;15.446;2023-02-11T12:51:34;12.20;;;10.90;;
7162;SDS011;3623;47.098;15.446;2023-02-11T12:54:16;13.93;;;10.90;;
7162;SDS011;3623;47.098;15.446;2023-02-11T12:56:51;12.13;;;10.80;;
7162;SDS011;3623;47.098;15.446;2023-02-11T12:59:37;10.40;;;9.40;;
7162;SDS011;3623;47.098;15.446;2023-02-11T13:02:14;12.00;;;9.70;;
7162;SDS011;3623;47.098;15.446;2023-02-11T13:04:47;10.97;;;9.70;;
7162;SDS011;3623;47.098;15.446;2023-02-11T13:07:18;11.10;;;9.53;;
7162;SDS011;3623;47.098;15.446;2023-02-11T13:09:50;10.00;;;8.53;;
7162;SDS011;3623;47.098;15.446;2023-02-11T13:12:21;10.23;;;9.07;;
7162;SDS011;3623;47.098;15.446;2023-02-11T13:15:11;11.23;;;9.10;;
7162;SDS011;3623;47.098;15.446;2023-02-11T13:17:40;12.43;;;9.80;;
7162;SDS011;3623;47.098;15.446;2023-02-11T13:20:17;9.97;;;7.83;;
7162;SDS011;3623;47.098;15.446;2023-02-11T13:22:54;11.77;;;10.53;;
7162;SDS011;3623;47.098;15.446;2023-02-11T13:25:25;9.87;;;8.90;;
7162;SDS011;3623;47.098;15.446;2023-02-11T13:28:00;10.80;;;9.10;;
7162;SDS011;3623;47.098;15.446;2023-02-11T13:30:36;11.17;;;9.10;;
7162;SDS011;3623;47.098;15.446;2023-02-11T13:33:18;12.83;;;9.07;;
7162;SDS011;3623;47.098;15.446;2023-02-11T13:38:49;10.80;;;9.70;;
7162;SDS011;3623;47.098;15.446;2023-02-11T13:41:19;11.37;;;10.17;;
7162;SDS011;3623;47.098;15.446;2023-02-11T13:43:58;13.17;;;9.97;;
7162;SDS011;3623;47.098;15.446;2023-02-11T13:49:31;10.77;;;8.53;;
7162;SDS011;3623;47.098;15.446;2023-02-11T13:52:02;12.83;;;9.10;;
7162;SDS011;3623;47.098;15.446;2023-02-11T13:54:32;10.63;;;9.37;;
7162;SDS011;3623;47.098;15.446;2023-02-11T13:57:21;10.20;;;8.90;;
7162;SDS011;3623;47.098;15.446;2023-02-11T13:59:56;11.90;;;9.87;;
7162;SDS011;3623;47.098;15.446;2023-02-11T14:02:26;10.63;;;9.57;;
7162;SDS011;3623;47.098;15.446;2023-02-11T14:05:22;11.10;;;9.95;;
7162;SDS011;3623;47.098;15.446;2023-02-11T14:08:15;13.50;;;10.18;;
7162;SDS011;3623;47.098;15.446;2023-02-11T14:14:16;8.80;;;8.00;;
7162;SDS011;3623;47.098;15.446;2023-02-11T14:19:56;10.30;;;8.75;;
7162;SDS011;3623;47.098;15.446;2023-02-11T14:22:26;12.50;;;9.32;;
7162;SDS011;3623;47.098;15.446;2023-02-11T14:24:56;9.52;;;8.50;;
7162;SDS011;3623;47.098;15.446;2023-02-11T14:27:29;9.35;;;8.07;;
7162;SDS011;3623;47.098;15.446;2023-02-11T14:36:25;9.32;;;7.97;;
7162;SDS011;3623;47.098;15.446;2023-02-11T14:39:15;10.00;;;8.13;;
7162;SDS011;3623;47.098;15.446;2023-02-11T14:41:49;10.65;;;7.15;;
7162;SDS011;3623;47.098;15.446;2023-02-11T14:44:18;8.95;;;7.97;;
7162;SDS011;3623;47.098;15.446;2023-02-11T14:46:47;8.95;;;7.53;;
7162;SDS011;3623;47.098;15.446;2023-02-11T14:49:19;9.65;;;8.18;;
7162;SDS011;3623;47.098;15.446;2023-02-11T14:51:51;11.10;;;9.07;;
7162;SDS011;3623;47.098;15.446;2023-02-11T14:54:23;10.60;;;8.65;;
7162;SDS011;3623;47.098;15.446;2023-02-11T14:59:35;15.05;;;7.75;;
7162;SDS011;3623;47.098;15.446;2023-02-11T15:02:02;7.75;;;6.93;;
7162;SDS011;3623;47.098;15.446;2023-02-11T15:04:44;9.18;;;7.90;;
7162;SDS011;3623;47.098;15.446;2023-02-11T15:07:11;9.52;;;7.93;;
7162;SDS011;3623;47.098;15.446;2023-02-11T15:09:41;8.13;;;7.32;;
7162;SDS011;3623;47.098;15.446;2023-02-11T15:12:14;8.50;;;7.70;;
7162;SDS011;3623;47.098;15.446;2023-02-11T15:14:44;10.95;;;7.75;;
7162;SDS011;3623;47.098;15.446;2023-02-11T15:17:14;8.63;;;7.20;;
7162;SDS011;3623;47.098;15.446;2023-02-11T15:19:46;7.80;;;7.05;;
7162;SDS011;3623;47.098;15.446;2023-02-11T15:22:18;9.15;;;6.43;;
7162;SDS011;3623;47.098;15.446;2023-02-11T15:24:58;10.88;;;7.20;;
7162;SDS011;3623;47.098;15.446;2023-02-11T15:27:34;7.93;;;5.85;;
7162;SDS011;3623;47.098;15.446;2023-02-11T15:30:14;7.28;;;6.30;;
7162;SDS011;3623;47.098;15.446;2023-02-11T15:32:54;9.02;;;7.63;;
7162;SDS011;3623;47.098;15.446;2023-02-11T15:35:24;9.80;;;6.68;;
7162;SDS011;3623;47.098;15.446;2023-02-11T15:37:53;7.72;;;6.80;;
7162;SDS011;3623;47.098;15.446;2023-02-11T15:40:23;8.85;;;7.47;;
7162;SDS011;3623;47.098;15.446;2023-02-11T15:42:54;12.10;;;6.95;;
7162;SDS011;3623;47.098;15.446;2023-02-11T15:45:24;7.05;;;6.40;;
7162;SDS011;3623;47.098;15.446;2023-02-11T15:47:55;9.13;;;6.90;;
7162;SDS011;3623;47.098;15.446;2023-02-11T15:50:28;12.00;;;8.13;;
7162;SDS011;3623;47.098;15.446;2023-02-11T15:52:59;7.38;;;6.30;;